sensor_id;sensor_type;location;lat;lon;timestamp;pressure;altitude;pressure_sealevel;temperature;humidity
14882;BME280;7533;51.278;12.588;2023-01-24T00:03:00;102219.34;;;21.85;58.54
14882;BME280;7533;51.278;12.588;2023-01-24T00:08:05;102228.25;;;21.87;58.32
14882;BME280;7533;51.278;12.588;2023-01-24T00:13:09;102222.34;;;21.77;58.77
14882;BME280;7533;51.278;12.588;2023-01-24T00:18:13;102222.16;;;21.82;58.68
14882;BME280;7533;51.278;12.588;2023-01-24T00:23:18;102217.72;;;21.81;58.42
14882;BME280;7533;51.278;12.588;2023-01-24T00:28:20;102215.72;;;21.86;58.50
14882;BME280;7533;51.278;12.588;2023-01-24T00:33:23;102227.44;;;21.85;58.75
14882;BME280;7533;51.278;12.588;2023-01-24T00:38:29;102226.50;;;21.86;58.55
14882;BME280;7533;51.278;12.588;2023-01-24T00:43:32;102224.50;;;21.91;58.53
14882;BME280;7533;51.278;12.588;2023-01-24T00:48:35;102236.34;;;21.87;58.49
14882;BME280;7533;51.278;12.588;2023-01-24T00:53:39;102240.78;;;21.88;58.55
14882;BME280;7533;51.278;12.588;2023-01-24T00:58:42;102238.41;;;21.80;58.70
14882;BME280;7533;51.278;12.588;2023-01-24T01:03:45;102236.41;;;21.85;58.70
14882;BME280;7533;51.278;12.588;2023-01-24T01:08:49;102243.72;;;21.82;58.89
14882;BME280;7533;51.278;12.588;2023-01-24T01:13:54;102235.78;;;21.79;59.05
14882;BME280;7533;51.278;12.588;2023-01-24T01:18:56;102238.41;;;21.80;59.04
14882;BME280;7533;51.278;12.588;2023-01-24T01:24:01;102247.25;;;21.84;58.92
14882;BME280;7533;51.278;12.588;2023-01-24T01:29:03;102235.00;;;21.75;59.19
14882;BME280;7533;51.278;12.588;2023-01-24T01:34:07;102240.56;;;21.71;59.39
14882;BME280;7533;51.278;12.588;2023-01-24T01:39:13;102216.91;;;21.79;59.01
14882;BME280;7533;51.278;12.588;2023-01-24T01:44:20;102225.94;;;21.78;59.27
14882;BME280;7533;51.278;12.588;2023-01-24T01:49:46;102213.25;;;21.80;59.07
14882;BME280;7533;51.278;12.588;2023-01-24T01:54:58;102204.38;;;21.78;59.09
14882;BME280;7533;51.278;12.588;2023-01-24T02:00:07;102210.63;;;21.78;59.16
14882;BME280;7533;51.278;12.588;2023-01-24T02:05:17;102210.88;;;21.72;59.24
14882;BME280;7533;51.278;12.588;2023-01-24T02:10:24;102203.53;;;21.76;59.31
14882;BME280;7533;51.278;12.588;2023-01-24T02:15:49;102207.34;;;21.70;59.30
14882;BME280;7533;51.278;12.588;2023-01-24T02:21:09;102208.41;;;21.66;59.40
14882;BME280;7533;51.278;12.588;2023-01-24T02:26:15;102227.25;;;21.68;59.42
14882;BME280;7533;51.278;12.588;2023-01-24T02:31:20;102219.00;;;21.71;59.54
14882;BME280;7533;51.278;12.588;2023-01-24T02:36:27;102228.66;;;21.76;59.16
14882;BME280;7533;51.278;12.588;2023-01-24T02:41:36;102228.28;;;21.63;59.49
14882;BME280;7533;51.278;12.588;2023-01-24T02:46:43;102227.72;;;21.55;59.88
14882;BME280;7533;51.278;12.588;2023-01-24T02:51:46;102224.81;;;21.60;59.67
14882;BME280;7533;51.278;12.588;2023-01-24T02:57:08;102221.38;;;21.56;59.90
14882;BME280;7533;51.278;12.588;2023-01-24T03:02:28;102220.28;;;21.62;59.93
14882;BME280;7533;51.278;12.588;2023-01-24T03:07:31;102227.69;;;21.79;59.32
14882;BME280;7533;51.278;12.588;2023-01-24T03:12:46;102222.16;;;21.82;59.30
14882;BME280;7533;51.278;12.588;2023-01-24T03:18:08;102215.88;;;21.81;59.16
14882;BME280;7533;51.278;12.588;2023-01-24T03:23:29;102226.56;;;21.84;59.05
14882;BME280;7533;51.278;12.588;2023-01-24T03:28:50;102230.31;;;21.80;59.19
14882;BME280;7533;51.278;12.588;2023-01-24T03:34:11;102235.97;;;21.74;59.48
14882;BME280;7533;51.278;12.588;2023-01-24T03:39:34;102234.47;;;21.65;59.52
14882;BME280;7533;51.278;12.588;2023-01-24T03:44:56;102226.88;;;21.53;60.03
14882;BME280;7533;51.278;12.588;2023-01-24T03:49:59;102220.22;;;21.40;60.37
14882;BME280;7533;51.278;12.588;2023-01-24T03:55:19;102212.69;;;21.25;60.90
14882;BME280;7533;51.278;12.588;2023-01-24T04:00:25;102213.69;;;21.22;60.86
14882;BME280;7533;51.278;12.588;2023-01-24T04:05:33;102214.97;;;21.12;61.40
14882;BME280;7533;51.278;12.588;2023-01-24T04:10:36;102214.41;;;21.02;61.69
14882;BME280;7533;51.278;12.588;2023-01-24T04:15:42;102211.31;;;20.90;61.88
14882;BME280;7533;51.278;12.588;2023-01-24T04:21:11;102222.38;;;20.82;62.01
14882;BME280;7533;51.278;12.588;2023-01-24T04:26:14;102228.50;;;20.60;62.95
14882;BME280;7533;51.278;12.588;2023-01-24T04:31:19;102218.84;;;20.53;62.88
14882;BME280;7533;51.278;12.588;2023-01-24T04:36:41;102224.53;;;20.46;63.27
14882;BME280;7533;51.278;12.588;2023-01-24T04:41:45;102224.59;;;20.43;63.39
14882;BME280;7533;51.278;12.588;2023-01-24T04:46:50;102225.47;;;20.43;63.18
14882;BME280;7533;51.278;12.588;2023-01-24T04:51:53;102220.34;;;20.35;63.45
14882;BME280;7533;51.278;12.588;2023-01-24T04:57:01;102218.75;;;20.30;63.54
14882;BME280;7533;51.278;12.588;2023-01-24T05:02:06;102231.56;;;20.22;63.75
14882;BME280;7533;51.278;12.588;2023-01-24T05:07:16;102212.81;;;20.20;63.82
14882;BME280;7533;51.278;12.588;2023-01-24T05:12:24;102221.13;;;20.13;63.92
14882;BME280;7533;51.278;12.588;2023-01-24T05:17:31;102222.97;;;20.11;63.92
14882;BME280;7533;51.278;12.588;2023-01-24T05:22:34;102220.44;;;20.06;63.95
14882;BME280;7533;51.278;12.588;2023-01-24T05:27:36;102225.09;;;20.01;63.97
14882;BME280;7533;51.278;12.588;2023-01-24T05:32:41;102242.09;;;20.01;64.06
14882;BME280;7533;51.278;12.588;2023-01-24T05:37:44;102240.41;;;19.97;64.08
14882;BME280;7533;51.278;12.588;2023-01-24T05:42:48;102242.34;;;19.94;64.21
14882;BME280;7533;51.278;12.588;2023-01-24T05:47:52;102244.19;;;19.92;64.22
14882;BME280;7533;51.278;12.588;2023-01-24T05:52:54;102247.94;;;19.86;64.27
14882;BME280;7533;51.278;12.588;2023-01-24T05:57:58;102252.50;;;19.84;64.33
14882;BME280;7533;51.278;12.588;2023-01-24T06:03:17;102258.00;;;19.81;64.43
14882;BME280;7533;51.278;12.588;2023-01-24T06:08:21;102259.06;;;19.75;64.56
14882;BME280;7533;51.278;12.588;2023-01-24T06:13:24;102262.75;;;19.71;64.66
14882;BME280;7533;51.278;12.588;2023-01-24T06:18:28;102263.69;;;19.70;64.70
14882;BME280;7533;51.278;12.588;2023-01-24T06:23:31;102281.69;;;19.67;64.48
14882;BME280;7533;51.278;12.588;2023-01-24T06:28:36;102277.25;;;19.66;64.74
14882;BME280;7533;51.278;12.588;2023-01-24T06:33:55;102273.81;;;19.61;64.76
14882;BME280;7533;51.278;12.588;2023-01-24T06:39:03;102277.44;;;19.60;64.88
14882;BME280;7533;51.278;12.588;2023-01-24T06:44:11;102284.59;;;19.58;64.82
14882;BME280;7533;51.278;12.588;2023-01-24T06:49:15;102273.91;;;19.56;64.87
14882;BME280;7533;51.278;12.588;2023-01-24T06:54:18;102275.78;;;19.54;64.92
14882;BME280;7533;51.278;12.588;2023-01-24T06:59:20;102287.47;;;19.51;65.01
14882;BME280;7533;51.278;12.588;2023-01-24T07:04:25;102290.22;;;19.50;64.98
14882;BME280;7533;51.278;12.588;2023-01-24T07:09:28;102284.91;;;19.47;65.22
14882;BME280;7533;51.278;12.588;2023-01-24T07:14:31;102293.09;;;19.44;65.10
14882;BME280;7533;51.278;12.588;2023-01-24T07:19:36;102284.22;;;19.40;65.25
14882;BME280;7533;51.278;12.588;2023-01-24T07:24:40;102305.72;;;19.40;65.25
14882;BME280;7533;51.278;12.588;2023-01-24T07:29:44;102303.06;;;19.39;65.34
14882;BME280;7533;51.278;12.588;2023-01-24T07:34:48;102309.44;;;19.36;65.36
14882;BME280;7533;51.278;12.588;2023-01-24T07:39:51;102307.63;;;19.35;65.35
14882;BME280;7533;51.278;12.588;2023-01-24T07:44:54;102320.19;;;19.35;65.49
14882;BME280;7533;51.278;12.588;2023-01-24T07:49:59;102317.50;;;19.35;65.34
14882;BME280;7533;51.278;12.588;2023-01-24T07:55:02;102323.91;;;19.31;65.31
14882;BME280;7533;51.278;12.588;2023-01-24T08:00:06;102331.97;;;19.29;65.48
14882;BME280;7533;51.278;12.588;2023-01-24T08:05:13;102340.63;;;19.40;65.39
14882;BME280;7533;51.278;12.588;2023-01-24T08:10:16;102336.19;;;19.72;64.62
14882;BME280;7533;51.278;12.588;2023-01-24T08:15:19;102338.22;;;19.93;63.90
14882;BME280;7533;51.278;12.588;2023-01-24T08:20:23;102345.34;;;17.83;51.90
14882;BME280;7533;51.278;12.588;2023-01-24T08:25:27;102347.59;;;15.99;51.72
14882;BME280;7533;51.278;12.588;2023-01-24T08:30:31;102353.00;;;17.58;51.27
14882;BME280;7533;51.278;12.588;2023-01-24T08:35:36;102345.03;;;18.76;50.56
14882;BME280;7533;51.278;12.588;2023-01-24T08:40:40;102349.13;;;19.23;50.82
14882;BME280;7533;51.278;12.588;2023-01-24T08:45:53;102351.16;;;19.48;51.23
14882;BME280;7533;51.278;12.588;2023-01-24T08:50:57;102344.47;;;19.64;51.99
14882;BME280;7533;51.278;12.588;2023-01-24T08:56:00;102340.50;;;19.77;52.34
14882;BME280;7533;51.278;12.588;2023-01-24T09:01:05;102335.72;;;19.87;52.86
14882;BME280;7533;51.278;12.588;2023-01-24T09:06:10;102343.59;;;19.93;53.55
14882;BME280;7533;51.278;12.588;2023-01-24T09:11:12;102343.47;;;19.98;54.27
14882;BME280;7533;51.278;12.588;2023-01-24T09:16:15;102347.88;;;20.00;54.93
14882;BME280;7533;51.278;12.588;2023-01-24T09:21:20;102339.88;;;19.97;55.60
14882;BME280;7533;51.278;12.588;2023-01-24T09:26:23;102339.97;;;19.94;56.17
14882;BME280;7533;51.278;12.588;2023-01-24T09:31:26;102352.69;;;19.89;56.75
14882;BME280;7533;51.278;12.588;2023-01-24T09:36:31;102344.63;;;19.89;57.18
14882;BME280;7533;51.278;12.588;2023-01-24T09:41:45;102348.31;;;19.85;57.54
14882;BME280;7533;51.278;12.588;2023-01-24T09:47:15;102351.19;;;19.79;57.91
14882;BME280;7533;51.278;12.588;2023-01-24T09:52:27;102352.19;;;19.75;58.27
14882;BME280;7533;51.278;12.588;2023-01-24T09:57:37;102363.97;;;19.71;58.57
14882;BME280;7533;51.278;12.588;2023-01-24T10:02:45;102356.78;;;19.71;58.80
14882;BME280;7533;51.278;12.588;2023-01-24T10:13:36;102338.16;;;19.65;59.34
14882;BME280;7533;51.278;12.588;2023-01-24T10:18:53;102334.59;;;19.65;59.64
14882;BME280;7533;51.278;12.588;2023-01-24T10:24:06;102330.19;;;19.62;59.96
14882;BME280;7533;51.278;12.588;2023-01-24T10:29:14;102331.03;;;19.64;60.18
14882;BME280;7533;51.278;12.588;2023-01-24T10:34:24;102338.69;;;19.78;61.47
14882;BME280;7533;51.278;12.588;2023-01-24T10:39:29;102328.53;;;19.88;63.54
14882;BME280;7533;51.278;12.588;2023-01-24T10:44:35;102330.56;;;19.79;65.04
14882;BME280;7533;51.278;12.588;2023-01-24T10:49:41;102327.69;;;19.86;66.43
14882;BME280;7533;51.278;12.588;2023-01-24T10:54:49;102327.69;;;19.86;67.48
14882;BME280;7533;51.278;12.588;2023-01-24T10:59:54;102323.19;;;19.86;68.46
14882;BME280;7533;51.278;12.588;2023-01-24T11:04:59;102326.22;;;19.75;69.31
14882;BME280;7533;51.278;12.588;2023-01-24T11:10:11;102317.72;;;19.60;69.34
14882;BME280;7533;51.278;12.588;2023-01-24T11:15:23;102327.69;;;19.54;68.63
14882;BME280;7533;51.278;12.588;2023-01-24T11:20:29;102321.56;;;19.49;67.87
14882;BME280;7533;51.278;12.588;2023-01-24T11:25:33;102312.63;;;19.49;66.93
14882;BME280;7533;51.278;12.588;2023-01-24T11:30:37;102310.94;;;19.45;66.21
14882;BME280;7533;51.278;12.588;2023-01-24T11:35:42;102313.75;;;19.40;65.61
14882;BME280;7533;51.278;12.588;2023-01-24T11:40:58;102307.75;;;19.32;65.33
14882;BME280;7533;51.278;12.588;2023-01-24T11:46:18;102302.38;;;19.32;64.73
14882;BME280;7533;51.278;12.588;2023-01-24T11:51:40;102301.69;;;19.25;64.84
14882;BME280;7533;51.278;12.588;2023-01-24T11:56:50;102301.63;;;19.27;64.67
14882;BME280;7533;51.278;12.588;2023-01-24T12:02:04;102302.63;;;19.23;64.38
14882;BME280;7533;51.278;12.588;2023-01-24T12:07:20;102294.44;;;19.27;63.87
14882;BME280;7533;51.278;12.588;2023-01-24T12:12:35;102302.44;;;19.29;63.72
14882;BME280;7533;51.278;12.588;2023-01-24T12:18:06;102293.56;;;19.27;63.55
14882;BME280;7533;51.278;12.588;2023-01-24T12:23:19;102291.63;;;19.32;63.62
14882;BME280;7533;51.278;12.588;2023-01-24T12:28:31;102291.69;;;19.29;63.61
14882;BME280;7533;51.278;12.588;2023-01-24T12:33:41;102290.78;;;19.30;63.96
14882;BME280;7533;51.278;12.588;2023-01-24T12:38:52;102287.13;;;19.33;63.78
14882;BME280;7533;51.278;12.588;2023-01-24T12:44:13;102292.28;;;17.14;55.66
14882;BME280;7533;51.278;12.588;2023-01-24T12:49:25;102298.34;;;15.52;53.67
14882;BME280;7533;51.278;12.588;2023-01-24T12:54:48;102296.47;;;14.77;53.73
14882;BME280;7533;51.278;12.588;2023-01-24T12:59:53;102283.63;;;17.01;51.85
14882;BME280;7533;51.278;12.588;2023-01-24T13:05:09;102284.75;;;18.16;50.90
14882;BME280;7533;51.278;12.588;2023-01-24T13:10:22;102276.50;;;18.61;51.11
14882;BME280;7533;51.278;12.588;2023-01-24T13:15:36;102271.28;;;18.91;51.77
14882;BME280;7533;51.278;12.588;2023-01-24T13:20:54;102265.31;;;19.14;52.21
14882;BME280;7533;51.278;12.588;2023-01-24T13:26:19;102271.97;;;19.32;52.75
14882;BME280;7533;51.278;12.588;2023-01-24T13:31:32;102275.16;;;19.44;53.12
14882;BME280;7533;51.278;12.588;2023-01-24T13:36:38;102276.72;;;19.53;53.53
14882;BME280;7533;51.278;12.588;2023-01-24T13:41:41;102277.31;;;19.63;53.88
14882;BME280;7533;51.278;12.588;2023-01-24T13:47:02;102274.44;;;19.69;54.19
14882;BME280;7533;51.278;12.588;2023-01-24T13:52:36;102280.63;;;19.72;54.67
14882;BME280;7533;51.278;12.588;2023-01-24T13:57:39;102280.50;;;19.77;54.92
14882;BME280;7533;51.278;12.588;2023-01-24T14:03:00;102277.75;;;19.78;55.34
14882;BME280;7533;51.278;12.588;2023-01-24T14:08:14;102286.63;;;19.82;55.43
14882;BME280;7533;51.278;12.588;2023-01-24T14:13:43;102292.81;;;19.84;55.97
14882;BME280;7533;51.278;12.588;2023-01-24T14:18:58;102299.81;;;19.90;56.58
14882;BME280;7533;51.278;12.588;2023-01-24T14:24:18;102301.63;;;19.89;57.29
14882;BME280;7533;51.278;12.588;2023-01-24T14:29:33;102310.59;;;19.88;58.16
14882;BME280;7533;51.278;12.588;2023-01-24T14:34:43;102308.78;;;19.89;58.50
14882;BME280;7533;51.278;12.588;2023-01-24T14:39:49;102309.75;;;19.86;58.85
14882;BME280;7533;51.278;12.588;2023-01-24T14:44:54;102305.38;;;19.84;59.18
14882;BME280;7533;51.278;12.588;2023-01-24T14:50:00;102295.59;;;19.81;59.44
14882;BME280;7533;51.278;12.588;2023-01-24T14:55:27;102291.13;;;19.81;59.37
14882;BME280;7533;51.278;12.588;2023-01-24T15:00:32;102289.38;;;19.79;59.89
14882;BME280;7533;51.278;12.588;2023-01-24T15:05:37;102301.94;;;19.78;60.18
14882;BME280;7533;51.278;12.588;2023-01-24T15:10:41;102297.44;;;19.79;60.37
14882;BME280;7533;51.278;12.588;2023-01-24T15:15:44;102288.56;;;19.77;60.58
14882;BME280;7533;51.278;12.588;2023-01-24T15:20:49;102289.50;;;19.74;60.89
14882;BME280;7533;51.278;12.588;2023-01-24T15:25:52;102296.69;;;19.75;61.00
14882;BME280;7533;51.278;12.588;2023-01-24T15:30:56;102292.25;;;19.73;61.13
14882;BME280;7533;51.278;12.588;2023-01-24T15:36:02;102296.69;;;19.74;61.32
14882;BME280;7533;51.278;12.588;2023-01-24T15:41:19;102301.25;;;19.72;61.38
14882;BME280;7533;51.278;12.588;2023-01-24T15:46:27;102294.94;;;19.73;61.49
14882;BME280;7533;51.278;12.588;2023-01-24T15:52:01;102295.06;;;19.68;61.44
14882;BME280;7533;51.278;12.588;2023-01-24T15:57:10;102295.88;;;19.72;61.49
14882;BME280;7533;51.278;12.588;2023-01-24T16:02:16;102297.56;;;19.74;61.57
14882;BME280;7533;51.278;12.588;2023-01-24T16:07:20;102289.50;;;19.74;61.64
14882;BME280;7533;51.278;12.588;2023-01-24T16:12:26;102285.00;;;19.75;61.81
14882;BME280;7533;51.278;12.588;2023-01-24T16:17:30;102273.38;;;19.76;61.83
14882;BME280;7533;51.278;12.588;2023-01-24T16:22:34;102279.66;;;19.75;61.87
14882;BME280;7533;51.278;12.588;2023-01-24T16:27:37;102285.81;;;19.78;61.91
14882;BME280;7533;51.278;12.588;2023-01-24T16:32:40;102287.56;;;19.79;62.17
14882;BME280;7533;51.278;12.588;2023-01-24T16:37:45;102283.94;;;19.82;62.16
14882;BME280;7533;51.278;12.588;2023-01-24T16:42:48;102285.56;;;19.86;62.47
14882;BME280;7533;51.278;12.588;2023-01-24T16:47:51;102276.06;;;20.04;62.06
14882;BME280;7533;51.278;12.588;2023-01-24T16:52:55;102278.97;;;20.26;61.44
14882;BME280;7533;51.278;12.588;2023-01-24T16:57:58;102277.81;;;20.33;61.21
14882;BME280;7533;51.278;12.588;2023-01-24T17:03:01;102280.03;;;20.48;60.88
14882;BME280;7533;51.278;12.588;2023-01-24T17:08:05;102272.22;;;20.67;60.76
14882;BME280;7533;51.278;12.588;2023-01-24T17:13:09;102269.16;;;20.78;60.78
14882;BME280;7533;51.278;12.588;2023-01-24T17:18:12;102276.88;;;20.87;60.59
14882;BME280;7533;51.278;12.588;2023-01-24T17:23:16;102278.53;;;20.91;60.51
14882;BME280;7533;51.278;12.588;2023-01-24T17:28:19;102282.03;;;20.95;60.52
14882;BME280;7533;51.278;12.588;2023-01-24T17:33:22;102273.78;;;20.99;60.54
14882;BME280;7533;51.278;12.588;2023-01-24T17:38:27;102280.69;;;21.06;60.31
14882;BME280;7533;51.278;12.588;2023-01-24T17:43:30;102285.94;;;21.09;60.12
14882;BME280;7533;51.278;12.588;2023-01-24T17:48:51;102288.63;;;21.11;59.89
14882;BME280;7533;51.278;12.588;2023-01-24T17:53:55;102282.28;;;21.12;59.74
14882;BME280;7533;51.278;12.588;2023-01-24T17:59:00;102276.91;;;21.12;59.58
14882;BME280;7533;51.278;12.588;2023-01-24T18:04:03;102277.88;;;21.09;59.07
14882;BME280;7533;51.278;12.588;2023-01-24T18:09:08;102282.28;;;21.12;59.12
14882;BME280;7533;51.278;12.588;2023-01-24T18:14:10;102280.47;;;21.12;58.95
14882;BME280;7533;51.278;12.588;2023-01-24T18:19:13;102283.03;;;21.16;58.74
14882;BME280;7533;51.278;12.588;2023-01-24T18:24:18;102278.44;;;21.19;58.46
14882;BME280;7533;51.278;12.588;2023-01-24T18:29:20;102280.25;;;21.19;58.54
14882;BME280;7533;51.278;12.588;2023-01-24T18:34:23;102282.06;;;21.18;58.20
14882;BME280;7533;51.278;12.588;2023-01-24T18:39:28;102275.81;;;21.18;58.27
14882;BME280;7533;51.278;12.588;2023-01-24T18:44:30;102274.88;;;21.19;57.98
14882;BME280;7533;51.278;12.588;2023-01-24T18:49:33;102258.59;;;21.22;57.90
14882;BME280;7533;51.278;12.588;2023-01-24T18:54:37;102260.28;;;21.24;57.95
14882;BME280;7533;51.278;12.588;2023-01-24T18:59:42;102264.81;;;21.24;57.63
14882;BME280;7533;51.278;12.588;2023-01-24T19:04:45;102264.66;;;21.27;57.67
14882;BME280;7533;51.278;12.588;2023-01-24T19:09:49;102255.69;;;21.28;57.41
14882;BME280;7533;51.278;12.588;2023-01-24T19:14:53;102251.94;;;21.32;57.16
14882;BME280;7533;51.278;12.588;2023-01-24T19:19:56;102259.25;;;21.28;57.14
14882;BME280;7533;51.278;12.588;2023-01-24T19:25:00;102267.22;;;21.31;57.07
14882;BME280;7533;51.278;12.588;2023-01-24T19:30:03;102268.47;;;21.46;57.08
14882;BME280;7533;51.278;12.588;2023-01-24T19:35:07;102262.16;;;21.47;57.34
14882;BME280;7533;51.278;12.588;2023-01-24T19:40:12;102273.56;;;21.54;57.40
14882;BME280;7533;51.278;12.588;2023-01-24T19:45:15;102275.38;;;21.53;57.22
14882;BME280;7533;51.278;12.588;2023-01-24T19:50:18;102275.13;;;21.61;57.07
14882;BME280;7533;51.278;12.588;2023-01-24T19:55:22;102275.16;;;21.59;57.14
14882;BME280;7533;51.278;12.588;2023-01-24T20:00:25;102276.72;;;21.65;57.01
14882;BME280;7533;51.278;12.588;2023-01-24T20:05:28;102279.50;;;21.63;56.79
14882;BME280;7533;51.278;12.588;2023-01-24T20:10:32;102277.56;;;21.67;56.89
14882;BME280;7533;51.278;12.588;2023-01-24T20:15:35;102287.47;;;21.67;56.80
14882;BME280;7533;51.278;12.588;2023-01-24T20:20:38;102286.56;;;21.66;56.92
14882;BME280;7533;51.278;12.588;2023-01-24T20:25:43;102291.28;;;21.61;56.98
14882;BME280;7533;51.278;12.588;2023-01-24T20:30:45;102288.38;;;21.65;57.03
14882;BME280;7533;51.278;12.588;2023-01-24T20:35:56;102288.63;;;21.59;56.95
14882;BME280;7533;51.278;12.588;2023-01-24T20:41:03;102287.66;;;21.62;57.05
14882;BME280;7533;51.278;12.588;2023-01-24T20:46:09;102288.59;;;21.61;57.01
14882;BME280;7533;51.278;12.588;2023-01-24T20:51:13;102284.94;;;21.62;57.02
14882;BME280;7533;51.278;12.588;2023-01-24T20:56:18;102287.50;;;21.65;56.95
14882;BME280;7533;51.278;12.588;2023-01-24T21:01:25;102281.38;;;21.61;57.14
14882;BME280;7533;51.278;12.588;2023-01-24T21:06:31;102279.84;;;21.54;57.13
14882;BME280;7533;51.278;12.588;2023-01-24T21:11:36;102284.94;;;21.62;56.90
14882;BME280;7533;51.278;12.588;2023-01-24T21:16:39;102276.69;;;21.67;56.92
14882;BME280;7533;51.278;12.588;2023-01-24T21:21:42;102275.13;;;21.61;57.21
14882;BME280;7533;51.278;12.588;2023-01-24T21:26:47;102258.63;;;21.69;55.53
14882;BME280;7533;51.278;12.588;2023-01-24T21:31:49;102257.00;;;21.64;56.82
14882;BME280;7533;51.278;12.588;2023-01-24T21:36:52;102257.28;;;21.57;57.27
14882;BME280;7533;51.278;12.588;2023-01-24T21:41:57;102252.56;;;21.40;57.55
14882;BME280;7533;51.278;12.588;2023-01-24T21:47:03;102249.63;;;21.46;57.59
14882;BME280;7533;51.278;12.588;2023-01-24T21:52:11;102243.91;;;21.55;57.49
14882;BME280;7533;51.278;12.588;2023-01-24T21:57:15;102253.25;;;21.69;57.27
14882;BME280;7533;51.278;12.588;2023-01-24T22:02:35;102251.53;;;21.66;57.42
14882;BME280;7533;51.278;12.588;2023-01-24T22:07:38;102247.78;;;21.70;57.39
14882;BME280;7533;51.278;12.588;2023-01-24T22:12:42;102254.22;;;21.66;57.50
14882;BME280;7533;51.278;12.588;2023-01-24T22:17:46;102252.94;;;21.76;57.34
14882;BME280;7533;51.278;12.588;2023-01-24T22:23:07;102244.22;;;21.70;57.56
14882;BME280;7533;51.278;12.588;2023-01-24T22:28:18;102239.34;;;21.79;57.32
14882;BME280;7533;51.278;12.588;2023-01-24T22:33:22;102227.88;;;21.74;57.55
14882;BME280;7533;51.278;12.588;2023-01-24T22:38:25;102225.16;;;21.74;57.54
14882;BME280;7533;51.278;12.588;2023-01-24T22:43:29;102230.66;;;21.71;57.60
14882;BME280;7533;51.278;12.588;2023-01-24T22:48:32;102225.16;;;21.74;57.66
14882;BME280;7533;51.278;12.588;2023-01-24T22:53:35;102227.72;;;21.77;57.59
14882;BME280;7533;51.278;12.588;2023-01-24T22:58:42;102217.16;;;21.73;57.78
14882;BME280;7533;51.278;12.588;2023-01-24T23:03:45;102218.91;;;21.74;57.75
14882;BME280;7533;51.278;12.588;2023-01-24T23:08:48;102211.75;;;21.73;57.76
14882;BME280;7533;51.278;12.588;2023-01-24T23:13:53;102207.34;;;21.70;58.02
14882;BME280;7533;51.278;12.588;2023-01-24T23:19:31;102209.25;;;21.68;57.89
14882;BME280;7533;51.278;12.588;2023-01-24T23:24:52;102204.59;;;21.72;58.09
14882;BME280;7533;51.278;12.588;2023-01-24T23:30:17;102198.53;;;21.67;58.06
14882;BME280;7533;51.278;12.588;2023-01-24T23:35:22;102197.63;;;21.66;58.23
14882;BME280;7533;51.278;12.588;2023-01-24T23:40:25;102190.44;;;21.67;58.25
14882;BME280;7533;51.278;12.588;2023-01-24T23:45:30;102190.56;;;21.63;58.39
14882;BME280;7533;51.278;12.588;2023-01-24T23:50:33;102181.66;;;21.61;58.25
14882;BME280;7533;51.278;12.588;2023-01-24T23:55:35;102184.41;;;21.60;58.44
